sensor_id;sensor_type;location;lat;lon;timestamp;pressure;altitude;pressure_sealevel;temperature;humidity
55610;BME280;41486;52.502;13.486;2023-04-21T00:00:49;101468.19;;;11.46;100.00
55610;BME280;41486;52.502;13.486;2023-04-21T00:03:17;101461.97;;;11.47;100.00
55610;BME280;41486;52.502;13.486;2023-04-21T00:05:48;101458.59;;;11.45;100.00
55610;BME280;41486;52.502;13.486;2023-04-21T00:08:18;101458.69;;;11.43;100.00
55610;BME280;41486;52.502;13.486;2023-04-21T00:10:46;101462.78;;;11.34;100.00
55610;BME280;41486;52.502;13.486;2023-04-21T00:13:14;101459.31;;;11.34;100.00
55610;BME280;41486;52.502;13.486;2023-04-21T00:15:42;101458.84;;;11.27;100.00
55610;BME280;41486;52.502;13.486;2023-04-21T00:18:10;101460.44;;;11.17;100.00
55610;BME280;41486;52.502;13.486;2023-04-21T00:20:39;101460.81;;;11.11;100.00
55610;BME280;41486;52.502;13.486;2023-04-21T00:23:07;101454.19;;;11.05;100.00
55610;BME280;41486;52.502;13.486;2023-04-21T00:25:37;101463.66;;;11.08;100.00
55610;BME280;41486;52.502;13.486;2023-04-21T00:28:05;101456.38;;;10.98;100.00
55610;BME280;41486;52.502;13.486;2023-04-21T00:30:36;101450.75;;;10.90;100.00
55610;BME280;41486;52.502;13.486;2023-04-21T00:33:05;101456.56;;;10.95;100.00
55610;BME280;41486;52.502;13.486;2023-04-21T00:35:33;101452.16;;;10.96;100.00
55610;BME280;41486;52.502;13.486;2023-04-21T00:38:01;101452.22;;;10.94;100.00
55610;BME280;41486;52.502;13.486;2023-04-21T00:40:29;101447.19;;;10.91;100.00
55610;BME280;41486;52.502;13.486;2023-04-21T00:42:58;101444.94;;;10.85;100.00
55610;BME280;41486;52.502;13.486;2023-04-21T00:45:27;101447.38;;;10.88;100.00
55610;BME280;41486;52.502;13.486;2023-04-21T00:47:55;101434.41;;;10.85;100.00
55610;BME280;41486;52.502;13.486;2023-04-21T00:50:24;101438.94;;;10.83;100.00
55610;BME280;41486;52.502;13.486;2023-04-21T00:52:52;101440.47;;;10.72;100.00
55610;BME280;41486;52.502;13.486;2023-04-21T00:55:24;101439.81;;;10.69;100.00
55610;BME280;41486;52.502;13.486;2023-04-21T00:57:52;101438.22;;;10.66;100.00
55610;BME280;41486;52.502;13.486;2023-04-21T01:00:28;101428.00;;;10.62;100.00
55610;BME280;41486;52.502;13.486;2023-04-21T01:02:59;101436.44;;;10.67;100.00
55610;BME280;41486;52.502;13.486;2023-04-21T01:05:28;101427.47;;;10.56;100.00
55610;BME280;41486;52.502;13.486;2023-04-21T01:07:57;101427.53;;;10.55;100.00
55610;BME280;41486;52.502;13.486;2023-04-21T01:10:25;101434.31;;;10.59;100.00
55610;BME280;41486;52.502;13.486;2023-04-21T01:12:53;101430.81;;;10.58;100.00
55610;BME280;41486;52.502;13.486;2023-04-21T01:15:21;101432.50;;;10.60;100.00
55610;BME280;41486;52.502;13.486;2023-04-21T01:17:53;101435.34;;;10.56;100.00
55610;BME280;41486;52.502;13.486;2023-04-21T01:20:21;101434.50;;;10.56;100.00
55610;BME280;41486;52.502;13.486;2023-04-21T01:22:50;101437.13;;;10.56;100.00
55610;BME280;41486;52.502;13.486;2023-04-21T01:25:18;101429.16;;;10.57;100.00
55610;BME280;41486;52.502;13.486;2023-04-21T01:27:48;101429.16;;;10.57;100.00
55610;BME280;41486;52.502;13.486;2023-04-21T01:30:16;101430.44;;;10.50;100.00
55610;BME280;41486;52.502;13.486;2023-04-21T01:32:44;101432.53;;;10.45;100.00
55610;BME280;41486;52.502;13.486;2023-04-21T01:35:12;101422.84;;;10.46;100.00
55610;BME280;41486;52.502;13.486;2023-04-21T01:37:40;101432.66;;;10.44;100.00
55610;BME280;41486;52.502;13.486;2023-04-21T01:40:10;101423.88;;;10.43;100.00
55610;BME280;41486;52.502;13.486;2023-04-21T01:42:39;101416.41;;;10.37;100.00
55610;BME280;41486;52.502;13.486;2023-04-21T01:45:09;101420.72;;;10.38;100.00
55610;BME280;41486;52.502;13.486;2023-04-21T01:47:37;101416.41;;;10.37;100.00
55610;BME280;41486;52.502;13.486;2023-04-21T01:50:07;101412.91;;;10.36;100.00
55610;BME280;41486;52.502;13.486;2023-04-21T01:52:35;101411.50;;;10.45;100.00
55610;BME280;41486;52.502;13.486;2023-04-21T01:55:04;101414.13;;;10.45;98.51
55610;BME280;41486;52.502;13.486;2023-04-21T01:57:34;101412.00;;;10.37;98.56
55610;BME280;41486;52.502;13.486;2023-04-21T02:00:03;101413.56;;;10.25;99.44
55610;BME280;41486;52.502;13.486;2023-04-21T02:02:40;101408.88;;;10.31;99.62
55610;BME280;41486;52.502;13.486;2023-04-21T02:05:11;101410.84;;;10.27;98.95
55610;BME280;41486;52.502;13.486;2023-04-21T02:07:40;101409.81;;;10.30;98.38
55610;BME280;41486;52.502;13.486;2023-04-21T02:10:09;101406.34;;;10.29;97.53
55610;BME280;41486;52.502;13.486;2023-04-21T02:12:39;101401.16;;;10.27;98.75
55610;BME280;41486;52.502;13.486;2023-04-21T02:15:12;101401.84;;;10.17;98.30
55610;BME280;41486;52.502;13.486;2023-04-21T02:17:40;101394.69;;;10.19;97.38
55610;BME280;41486;52.502;13.486;2023-04-21T02:20:11;101400.59;;;10.22;96.22
55610;BME280;41486;52.502;13.486;2023-04-21T02:22:39;101399.09;;;10.18;97.03
55610;BME280;41486;52.502;13.486;2023-04-21T02:25:07;101403.72;;;10.15;97.85
55610;BME280;41486;52.502;13.486;2023-04-21T02:27:39;101400.34;;;10.13;97.54
55610;BME280;41486;52.502;13.486;2023-04-21T02:30:08;101392.53;;;10.11;97.25
55610;BME280;41486;52.502;13.486;2023-04-21T02:32:36;101392.63;;;10.09;96.86
55610;BME280;41486;52.502;13.486;2023-04-21T02:35:05;101395.16;;;10.11;96.42
55610;BME280;41486;52.502;13.486;2023-04-21T02:37:33;101395.28;;;10.09;95.79
55610;BME280;41486;52.502;13.486;2023-04-21T02:40:01;101395.91;;;10.13;96.37
55610;BME280;41486;52.502;13.486;2023-04-21T02:42:31;101393.56;;;10.08;95.94
55610;BME280;41486;52.502;13.486;2023-04-21T02:45:00;101399.88;;;10.06;95.47
55610;BME280;41486;52.502;13.486;2023-04-21T02:47:28;101397.81;;;9.97;95.67
55610;BME280;41486;52.502;13.486;2023-04-21T02:49:56;101407.50;;;9.96;95.63
55610;BME280;41486;52.502;13.486;2023-04-21T02:52:24;101398.19;;;10.05;94.90
55610;BME280;41486;52.502;13.486;2023-04-21T02:54:53;101399.88;;;10.06;94.23
55610;BME280;41486;52.502;13.486;2023-04-21T02:57:21;101403.25;;;9.93;95.26
55610;BME280;41486;52.502;13.486;2023-04-21T02:59:49;101404.88;;;9.96;94.80
55610;BME280;41486;52.502;13.486;2023-04-21T03:02:18;101407.84;;;9.90;94.82
55610;BME280;41486;52.502;13.486;2023-04-21T03:04:48;101398.69;;;9.97;94.07
55610;BME280;41486;52.502;13.486;2023-04-21T03:07:16;101392.06;;;9.90;94.49
55610;BME280;41486;52.502;13.486;2023-04-21T03:09:44;101392.38;;;9.85;95.19
55610;BME280;41486;52.502;13.486;2023-04-21T03:12:12;101394.25;;;9.83;95.83
55610;BME280;41486;52.502;13.486;2023-04-21T03:14:40;101389.28;;;9.78;95.46
55610;BME280;41486;52.502;13.486;2023-04-21T03:17:08;101391.69;;;9.82;94.99
55610;BME280;41486;52.502;13.486;2023-04-21T03:19:37;101391.81;;;9.80;94.29
55610;BME280;41486;52.502;13.486;2023-04-21T03:22:05;101393.50;;;9.81;94.30
55610;BME280;41486;52.502;13.486;2023-04-21T03:24:34;101398.19;;;9.76;94.91
55610;BME280;41486;52.502;13.486;2023-04-21T03:27:01;101397.53;;;9.72;94.92
55610;BME280;41486;52.502;13.486;2023-04-21T03:29:29;101395.00;;;9.71;95.12
55610;BME280;41486;52.502;13.486;2023-04-21T03:31:57;101395.66;;;9.74;94.69
55610;BME280;41486;52.502;13.486;2023-04-21T03:34:26;101393.28;;;9.70;93.99
55610;BME280;41486;52.502;13.486;2023-04-21T03:36:57;101392.63;;;9.66;94.83
55610;BME280;41486;52.502;13.486;2023-04-21T03:39:25;101393.22;;;9.71;94.48
55610;BME280;41486;52.502;13.486;2023-04-21T03:41:53;101388.78;;;9.72;93.96
55610;BME280;41486;52.502;13.486;2023-04-21T03:44:24;101393.88;;;9.60;95.10
55610;BME280;41486;52.502;13.486;2023-04-21T03:46:52;101387.97;;;9.57;94.96
55610;BME280;41486;52.502;13.486;2023-04-21T03:49:22;101393.50;;;9.52;95.56
55610;BME280;41486;52.502;13.486;2023-04-21T03:51:50;101391.69;;;9.53;96.01
55610;BME280;41486;52.502;13.486;2023-04-21T03:54:20;101392.06;;;9.46;95.82
55610;BME280;41486;52.502;13.486;2023-04-21T03:56:47;101391.88;;;9.50;95.83
55610;BME280;41486;52.502;13.486;2023-04-21T03:59:16;101398.09;;;9.49;96.27
55610;BME280;41486;52.502;13.486;2023-04-21T04:01:44;101393.00;;;9.45;95.31
55610;BME280;41486;52.502;13.486;2023-04-21T04:04:12;101394.50;;;9.50;95.12
55610;BME280;41486;52.502;13.486;2023-04-21T04:06:40;101397.88;;;9.52;94.89
55610;BME280;41486;52.502;13.486;2023-04-21T04:09:08;101400.06;;;9.45;95.61
55610;BME280;41486;52.502;13.486;2023-04-21T04:11:38;101393.19;;;9.42;95.65
55610;BME280;41486;52.502;13.486;2023-04-21T04:14:06;101397.22;;;9.48;95.18
55610;BME280;41486;52.502;13.486;2023-04-21T04:16:34;101402.69;;;9.45;95.25
55610;BME280;41486;52.502;13.486;2023-04-21T04:19:02;101401.16;;;9.41;95.61
55610;BME280;41486;52.502;13.486;2023-04-21T04:21:30;101394.81;;;9.45;95.23
55610;BME280;41486;52.502;13.486;2023-04-21T04:23:58;101397.69;;;9.40;94.86
55610;BME280;41486;52.502;13.486;2023-04-21T04:26:27;101406.41;;;9.41;95.33
55610;BME280;41486;52.502;13.486;2023-04-21T04:28:58;101411.16;;;9.34;95.76
55610;BME280;41486;52.502;13.486;2023-04-21T04:31:28;101407.28;;;9.41;95.48
55610;BME280;41486;52.502;13.486;2023-04-21T04:33:56;101410.16;;;9.37;95.76
55610;BME280;41486;52.502;13.486;2023-04-21T04:36:24;101415.06;;;9.43;95.42
55610;BME280;41486;52.502;13.486;2023-04-21T04:38:54;101404.44;;;9.44;95.23
55610;BME280;41486;52.502;13.486;2023-04-21T04:41:22;101414.56;;;9.36;95.45
55610;BME280;41486;52.502;13.486;2023-04-21T04:43:50;101416.44;;;9.34;95.37
55610;BME280;41486;52.502;13.486;2023-04-21T04:46:20;101415.31;;;9.38;95.46
55610;BME280;41486;52.502;13.486;2023-04-21T04:48:50;101411.09;;;9.36;95.33
55610;BME280;41486;52.502;13.486;2023-04-21T04:51:18;101420.09;;;9.31;95.59
55610;BME280;41486;52.502;13.486;2023-04-21T04:53:46;101413.78;;;9.34;95.21
55610;BME280;41486;52.502;13.486;2023-04-21T04:56:14;101410.56;;;9.45;94.73
55610;BME280;41486;52.502;13.486;2023-04-21T04:58:42;101419.66;;;9.39;94.18
55610;BME280;41486;52.502;13.486;2023-04-21T05:01:12;101421.41;;;9.39;95.14
55610;BME280;41486;52.502;13.486;2023-04-21T05:03:42;101417.69;;;9.43;94.14
55610;BME280;41486;52.502;13.486;2023-04-21T05:06:10;101429.63;;;9.49;93.86
55610;BME280;41486;52.502;13.486;2023-04-21T05:08:39;101425.84;;;9.53;93.77
55610;BME280;41486;52.502;13.486;2023-04-21T05:11:08;101423.22;;;9.53;93.78
55610;BME280;41486;52.502;13.486;2023-04-21T05:13:36;101427.38;;;9.57;92.97
55610;BME280;41486;52.502;13.486;2023-04-21T05:16:06;101421.91;;;9.60;92.43
55610;BME280;41486;52.502;13.486;2023-04-21T05:18:35;101423.06;;;9.56;92.92
55610;BME280;41486;52.502;13.486;2023-04-21T05:21:05;101426.25;;;9.61;92.12
55610;BME280;41486;52.502;13.486;2023-04-21T05:23:33;101426.25;;;9.61;92.32
55610;BME280;41486;52.502;13.486;2023-04-21T05:26:01;101431.06;;;9.69;91.64
55610;BME280;41486;52.502;13.486;2023-04-21T05:28:30;101430.03;;;9.71;91.57
55610;BME280;41486;52.502;13.486;2023-04-21T05:30:58;101422.59;;;9.78;90.43
55610;BME280;41486;52.502;13.486;2023-04-21T05:33:30;101421.59;;;9.81;91.43
55610;BME280;41486;52.502;13.486;2023-04-21T05:35:58;101427.00;;;9.92;91.13
55610;BME280;41486;52.502;13.486;2023-04-21T05:38:27;101423.44;;;9.93;89.67
55610;BME280;41486;52.502;13.486;2023-04-21T05:40:55;101422.41;;;9.95;89.53
55610;BME280;41486;52.502;13.486;2023-04-21T05:43:23;101428.03;;;10.04;88.94
55610;BME280;41486;52.502;13.486;2023-04-21T05:45:52;101422.50;;;10.08;88.29
55610;BME280;41486;52.502;13.486;2023-04-21T05:48:20;101423.72;;;10.17;87.92
55610;BME280;41486;52.502;13.486;2023-04-21T05:50:49;101422.75;;;10.18;88.26
55610;BME280;41486;52.502;13.486;2023-04-21T05:53:17;101424.66;;;10.31;87.99
55610;BME280;41486;52.502;13.486;2023-04-21T05:55:46;101430.75;;;10.31;86.77
55610;BME280;41486;52.502;13.486;2023-04-21T05:58:14;101431.06;;;10.41;86.86
55610;BME280;41486;52.502;13.486;2023-04-21T06:00:42;101417.59;;;10.46;85.83
55610;BME280;41486;52.502;13.486;2023-04-21T06:03:14;101424.19;;;10.53;86.21
55610;BME280;41486;52.502;13.486;2023-04-21T06:05:42;101416.34;;;10.51;84.88
55610;BME280;41486;52.502;13.486;2023-04-21T06:08:11;101421.91;;;10.61;85.25
55610;BME280;41486;52.502;13.486;2023-04-21T06:10:39;101418.66;;;10.70;84.24
55610;BME280;41486;52.502;13.486;2023-04-21T06:13:09;101412.91;;;10.78;83.70
55610;BME280;41486;52.502;13.486;2023-04-21T06:15:40;101417.31;;;10.78;83.10
55610;BME280;41486;52.502;13.486;2023-04-21T06:18:08;101416.06;;;10.83;82.08
55610;BME280;41486;52.502;13.486;2023-04-21T06:20:36;101412.66;;;10.96;81.12
55610;BME280;41486;52.502;13.486;2023-04-21T06:23:06;101412.34;;;11.00;81.15
55610;BME280;41486;52.502;13.486;2023-04-21T06:25:35;101410.13;;;11.07;80.27
55610;BME280;41486;52.502;13.486;2023-04-21T06:28:03;101414.78;;;11.16;81.17
55610;BME280;41486;52.502;13.486;2023-04-21T06:30:32;101415.75;;;11.28;80.45
55610;BME280;41486;52.502;13.486;2023-04-21T06:33:00;101402.16;;;11.34;80.10
55610;BME280;41486;52.502;13.486;2023-04-21T06:35:30;101406.19;;;11.53;79.40
55610;BME280;41486;52.502;13.486;2023-04-21T06:37:58;101416.00;;;11.64;79.91
55610;BME280;41486;52.502;13.486;2023-04-21T06:40:26;101409.59;;;11.68;77.63
55610;BME280;41486;52.502;13.486;2023-04-21T06:42:54;101402.31;;;11.84;76.83
55610;BME280;41486;52.502;13.486;2023-04-21T06:45:22;101401.00;;;11.90;75.06
55610;BME280;41486;52.502;13.486;2023-04-21T06:47:51;101404.28;;;12.07;74.74
55610;BME280;41486;52.502;13.486;2023-04-21T06:50:19;101405.25;;;12.06;74.75
55610;BME280;41486;52.502;13.486;2023-04-21T06:52:47;101397.97;;;12.09;74.06
55610;BME280;41486;52.502;13.486;2023-04-21T06:55:15;101397.75;;;12.12;73.11
55610;BME280;41486;52.502;13.486;2023-04-21T06:57:43;101398.59;;;12.13;74.05
55610;BME280;41486;52.502;13.486;2023-04-21T07:00:32;101395.69;;;12.29;72.89
55610;BME280;41486;52.502;13.486;2023-04-21T07:03:01;101394.13;;;12.26;71.99
55610;BME280;41486;52.502;13.486;2023-04-21T07:05:29;101391.97;;;12.31;72.66
55610;BME280;41486;52.502;13.486;2023-04-21T07:07:58;101400.44;;;12.37;72.18
55610;BME280;41486;52.502;13.486;2023-04-21T07:10:27;101398.41;;;12.40;73.00
55610;BME280;41486;52.502;13.486;2023-04-21T07:12:55;101401.56;;;12.45;71.40
55610;BME280;41486;52.502;13.486;2023-04-21T07:15:23;101397.50;;;12.53;72.24
55610;BME280;41486;52.502;13.486;2023-04-21T07:17:51;101397.06;;;12.59;71.26
55610;BME280;41486;52.502;13.486;2023-04-21T07:20:21;101393.13;;;12.65;71.18
55610;BME280;41486;52.502;13.486;2023-04-21T07:22:49;101391.97;;;12.69;70.66
55610;BME280;41486;52.502;13.486;2023-04-21T07:25:17;101392.00;;;12.80;69.78
55610;BME280;41486;52.502;13.486;2023-04-21T07:27:45;101389.28;;;12.82;68.42
55610;BME280;41486;52.502;13.486;2023-04-21T07:30:13;101393.22;;;12.87;68.14
55610;BME280;41486;52.502;13.486;2023-04-21T07:32:41;101392.00;;;13.04;70.02
55610;BME280;41486;52.502;13.486;2023-04-21T07:35:09;101391.78;;;13.19;73.58
55610;BME280;41486;52.502;13.486;2023-04-21T07:37:38;101385.91;;;13.26;69.22
55610;BME280;41486;52.502;13.486;2023-04-21T07:40:07;101392.31;;;13.35;67.30
55610;BME280;41486;52.502;13.486;2023-04-21T07:42:36;101391.91;;;13.53;69.96
55610;BME280;41486;52.502;13.486;2023-04-21T07:45:06;101389.84;;;13.68;66.49
55610;BME280;41486;52.502;13.486;2023-04-21T07:47:34;101383.72;;;13.67;64.91
55610;BME280;41486;52.502;13.486;2023-04-21T07:50:03;101385.75;;;13.75;65.46
55610;BME280;41486;52.502;13.486;2023-04-21T07:52:31;101388.91;;;13.80;63.94
55610;BME280;41486;52.502;13.486;2023-04-21T07:55:01;101393.09;;;13.94;63.08
55610;BME280;41486;52.502;13.486;2023-04-21T07:57:29;101387.19;;;13.91;63.30
55610;BME280;41486;52.502;13.486;2023-04-21T08:00:00;101385.16;;;14.06;62.54
55610;BME280;41486;52.502;13.486;2023-04-21T08:02:38;101380.22;;;14.12;61.77
55610;BME280;41486;52.502;13.486;2023-04-21T08:05:07;101384.88;;;14.20;60.82
55610;BME280;41486;52.502;13.486;2023-04-21T08:07:35;101383.19;;;14.30;60.91
55610;BME280;41486;52.502;13.486;2023-04-21T08:10:08;101387.03;;;14.38;61.11
55610;BME280;41486;52.502;13.486;2023-04-21T08:12:37;101385.47;;;14.35;60.51
55610;BME280;41486;52.502;13.486;2023-04-21T08:15:06;101380.50;;;14.53;60.67
55610;BME280;41486;52.502;13.486;2023-04-21T08:17:34;101383.94;;;14.65;60.77
55610;BME280;41486;52.502;13.486;2023-04-21T08:20:03;101379.75;;;14.74;58.90
55610;BME280;41486;52.502;13.486;2023-04-21T08:22:32;101376.50;;;14.70;57.73
55610;BME280;41486;52.502;13.486;2023-04-21T08:25:06;101374.72;;;14.92;58.27
55610;BME280;41486;52.502;13.486;2023-04-21T08:27:36;101377.28;;;15.03;57.04
55610;BME280;41486;52.502;13.486;2023-04-21T08:30:06;101372.72;;;15.05;57.66
55610;BME280;41486;52.502;13.486;2023-04-21T08:32:34;101376.47;;;15.03;56.28
55610;BME280;41486;52.502;13.486;2023-04-21T08:35:03;101373.78;;;15.14;55.78
55610;BME280;41486;52.502;13.486;2023-04-21T08:37:31;101367.94;;;15.20;55.99
55610;BME280;41486;52.502;13.486;2023-04-21T08:39:59;101371.59;;;15.29;56.23
55610;BME280;41486;52.502;13.486;2023-04-21T08:42:29;101364.88;;;15.46;55.20
55610;BME280;41486;52.502;13.486;2023-04-21T08:44:57;101367.28;;;15.59;53.84
55610;BME280;41486;52.502;13.486;2023-04-21T08:47:26;101369.56;;;15.64;55.27
55610;BME280;41486;52.502;13.486;2023-04-21T08:49:55;101367.47;;;15.67;53.75
55610;BME280;41486;52.502;13.486;2023-04-21T08:52:24;101370.03;;;15.78;54.26
55610;BME280;41486;52.502;13.486;2023-04-21T08:54:52;101373.88;;;15.86;52.48
55610;BME280;41486;52.502;13.486;2023-04-21T08:57:28;101373.03;;;15.85;52.09
55610;BME280;41486;52.502;13.486;2023-04-21T08:59:57;101370.16;;;15.98;53.70
55610;BME280;41486;52.502;13.486;2023-04-21T09:02:25;101374.69;;;16.17;52.86
55610;BME280;41486;52.502;13.486;2023-04-21T09:04:53;101371.47;;;16.23;51.66
55610;BME280;41486;52.502;13.486;2023-04-21T09:07:32;101369.53;;;16.35;53.18
55610;BME280;41486;52.502;13.486;2023-04-21T09:10:04;101364.22;;;16.35;51.00
55610;BME280;41486;52.502;13.486;2023-04-21T09:12:37;101371.78;;;16.30;50.55
55610;BME280;41486;52.502;13.486;2023-04-21T09:15:09;101368.41;;;16.38;50.82
55610;BME280;41486;52.502;13.486;2023-04-21T09:17:37;101373.63;;;16.49;51.65
55610;BME280;41486;52.502;13.486;2023-04-21T09:20:16;101362.56;;;16.64;51.67
55610;BME280;41486;52.502;13.486;2023-04-21T09:22:47;101366.19;;;16.72;50.79
55610;BME280;41486;52.502;13.486;2023-04-21T09:25:18;101368.97;;;16.91;50.59
55610;BME280;41486;52.502;13.486;2023-04-21T09:27:48;101363.69;;;17.10;50.09
55610;BME280;41486;52.502;13.486;2023-04-21T09:30:18;101364.22;;;17.14;48.69
55610;BME280;41486;52.502;13.486;2023-04-21T09:32:46;101364.09;;;17.15;49.18
55610;BME280;41486;52.502;13.486;2023-04-21T09:35:14;101360.00;;;17.21;49.45
55610;BME280;41486;52.502;13.486;2023-04-21T09:37:43;101359.75;;;17.24;50.32
55610;BME280;41486;52.502;13.486;2023-04-21T09:40:13;101364.31;;;17.32;50.75
55610;BME280;41486;52.502;13.486;2023-04-21T09:42:41;101360.25;;;17.38;48.48
55610;BME280;41486;52.502;13.486;2023-04-21T09:45:12;101355.78;;;17.38;48.67
55610;BME280;41486;52.502;13.486;2023-04-21T09:48:02;101355.63;;;17.40;49.21
55610;BME280;41486;52.502;13.486;2023-04-21T09:50:32;101352.66;;;17.43;49.88
55610;BME280;41486;52.502;13.486;2023-04-21T09:53:23;101351.91;;;17.60;49.09
55610;BME280;41486;52.502;13.486;2023-04-21T09:55:54;101352.03;;;17.69;48.80
55610;BME280;41486;52.502;13.486;2023-04-21T09:58:27;101357.38;;;17.87;48.39
55610;BME280;41486;52.502;13.486;2023-04-21T10:01:03;101351.09;;;17.97;48.44
55610;BME280;41486;52.502;13.486;2023-04-21T10:03:32;101348.25;;;17.99;47.61
55610;BME280;41486;52.502;13.486;2023-04-21T10:06:06;101349.06;;;18.09;46.69
55610;BME280;41486;52.502;13.486;2023-04-21T10:08:35;101343.91;;;18.26;45.17
55610;BME280;41486;52.502;13.486;2023-04-21T10:11:04;101345.88;;;18.60;45.31
55610;BME280;41486;52.502;13.486;2023-04-21T10:13:34;101349.06;;;18.82;43.33
55610;BME280;41486;52.502;13.486;2023-04-21T10:16:08;101340.28;;;19.07;43.49
55610;BME280;41486;52.502;13.486;2023-04-21T10:18:38;101344.81;;;19.42;42.82
55610;BME280;41486;52.502;13.486;2023-04-21T10:21:11;101347.38;;;19.51;41.75
55610;BME280;41486;52.502;13.486;2023-04-21T10:23:42;101331.94;;;19.37;41.87
55610;BME280;41486;52.502;13.486;2023-04-21T10:26:12;101335.81;;;19.43;41.09
55610;BME280;41486;52.502;13.486;2023-04-21T10:28:42;101335.91;;;19.59;42.60
55610;BME280;41486;52.502;13.486;2023-04-21T10:31:22;101330.44;;;19.69;42.03
55610;BME280;41486;52.502;13.486;2023-04-21T10:34:12;101331.47;;;19.76;41.26
55610;BME280;41486;52.502;13.486;2023-04-21T10:36:47;101333.56;;;19.91;41.63
55610;BME280;41486;52.502;13.486;2023-04-21T10:39:27;101337.63;;;20.20;40.87
55610;BME280;41486;52.502;13.486;2023-04-21T10:41:57;101325.81;;;20.55;40.67
55610;BME280;41486;52.502;13.486;2023-04-21T10:44:51;101325.16;;;20.61;39.97
55610;BME280;41486;52.502;13.486;2023-04-21T10:47:28;101318.13;;;20.69;39.85
55610;BME280;41486;52.502;13.486;2023-04-21T10:49:58;101327.13;;;20.68;39.66
55610;BME280;41486;52.502;13.486;2023-04-21T10:52:30;101318.31;;;20.75;39.83
55610;BME280;41486;52.502;13.486;2023-04-21T10:55:07;101314.94;;;20.65;39.89
55610;BME280;41486;52.502;13.486;2023-04-21T10:57:41;101309.31;;;20.76;40.25
55610;BME280;41486;52.502;13.486;2023-04-21T11:00:14;101314.44;;;20.70;40.87
55610;BME280;41486;52.502;13.486;2023-04-21T11:02:52;101310.59;;;21.05;41.11
55610;BME280;41486;52.502;13.486;2023-04-21T11:05:27;101308.69;;;21.39;38.94
55610;BME280;41486;52.502;13.486;2023-04-21T11:08:04;101304.13;;;21.87;37.91
55610;BME280;41486;52.502;13.486;2023-04-21T11:10:50;101301.66;;;22.79;36.86
55610;BME280;41486;52.502;13.486;2023-04-21T11:13:20;101292.25;;;23.43;35.97
55610;BME280;41486;52.502;13.486;2023-04-21T11:16:00;101291.41;;;23.12;35.32
55610;BME280;41486;52.502;13.486;2023-04-21T11:18:36;101290.50;;;23.20;34.37
55610;BME280;41486;52.502;13.486;2023-04-21T11:21:12;101286.59;;;23.08;35.59
55610;BME280;41486;52.502;13.486;2023-04-21T11:23:48;101299.19;;;23.89;34.24
55610;BME280;41486;52.502;13.486;2023-04-21T11:26:28;101287.81;;;24.23;33.28
55610;BME280;41486;52.502;13.486;2023-04-21T11:29:00;101290.19;;;26.29;31.32
55610;BME280;41486;52.502;13.486;2023-04-21T11:31:31;101279.03;;;25.70;31.45
55610;BME280;41486;52.502;13.486;2023-04-21T11:34:02;101276.63;;;26.02;30.79
55610;BME280;41486;52.502;13.486;2023-04-21T11:36:31;101278.34;;;26.10;30.15
55610;BME280;41486;52.502;13.486;2023-04-21T11:39:03;101285.69;;;25.26;30.87
55610;BME280;41486;52.502;13.486;2023-04-21T11:41:33;101267.69;;;23.61;32.29
55610;BME280;41486;52.502;13.486;2023-04-21T11:44:02;101261.69;;;22.84;34.20
55610;BME280;41486;52.502;13.486;2023-04-21T11:46:30;101267.63;;;22.56;35.01
55610;BME280;41486;52.502;13.486;2023-04-21T11:49:01;101263.91;;;22.19;36.55
55610;BME280;41486;52.502;13.486;2023-04-21T11:51:34;101254.53;;;22.38;35.92
55610;BME280;41486;52.502;13.486;2023-04-21T11:54:04;101263.06;;;22.18;35.59
55610;BME280;41486;52.502;13.486;2023-04-21T11:56:36;101250.50;;;22.19;35.87
55610;BME280;41486;52.502;13.486;2023-04-21T11:59:08;101257.50;;;21.73;36.28
55610;BME280;41486;52.502;13.486;2023-04-21T12:01:42;101250.16;;;22.37;35.54
55610;BME280;41486;52.502;13.486;2023-04-21T12:04:14;101260.78;;;24.10;32.51
55610;BME280;41486;52.502;13.486;2023-04-21T12:06:43;101250.66;;;24.62;32.10
55610;BME280;41486;52.502;13.486;2023-04-21T12:09:16;101241.59;;;26.83;29.07
55610;BME280;41486;52.502;13.486;2023-04-21T12:11:46;101254.09;;;27.43;28.17
55610;BME280;41486;52.502;13.486;2023-04-21T12:14:16;101248.66;;;26.70;28.79
55610;BME280;41486;52.502;13.486;2023-04-21T12:16:47;101240.97;;;26.20;27.98
55610;BME280;41486;52.502;13.486;2023-04-21T12:19:22;101251.00;;;23.87;31.75
55610;BME280;41486;52.502;13.486;2023-04-21T12:21:52;101249.94;;;26.41;29.71
55610;BME280;41486;52.502;13.486;2023-04-21T12:24:22;101245.72;;;25.29;30.37
55610;BME280;41486;52.502;13.486;2023-04-21T12:26:50;101238.28;;;24.39;31.98
55610;BME280;41486;52.502;13.486;2023-04-21T12:29:20;101218.97;;;25.28;30.47
55610;BME280;41486;52.502;13.486;2023-04-21T12:31:48;101221.69;;;26.17;30.06
55610;BME280;41486;52.502;13.486;2023-04-21T12:34:19;101230.53;;;28.46;27.40
55610;BME280;41486;52.502;13.486;2023-04-21T12:36:49;101235.41;;;28.05;27.29
55610;BME280;41486;52.502;13.486;2023-04-21T12:39:17;101233.81;;;28.29;26.63
55610;BME280;41486;52.502;13.486;2023-04-21T12:41:46;101228.63;;;28.90;25.72
55610;BME280;41486;52.502;13.486;2023-04-21T12:44:14;101233.69;;;29.85;25.17
55610;BME280;41486;52.502;13.486;2023-04-21T12:46:42;101224.44;;;28.00;26.29
55610;BME280;41486;52.502;13.486;2023-04-21T12:49:10;101224.19;;;29.15;25.90
55610;BME280;41486;52.502;13.486;2023-04-21T12:51:38;101216.41;;;29.37;24.32
55610;BME280;41486;52.502;13.486;2023-04-21T12:54:08;101216.69;;;29.47;24.42